Time;durP1;ratioP1;P1;durP2;ratioP2;P2;SDS_P1;SDS_P2;PMS_P1;PMS_P2;Temp;Humidity;BMP_temperature;BMP_pressure;BME280_temperature;BME280_humidity;BME280_pressure;Samples;Min_cycle;Max_cycle;Signal;HPM_P1;HPM_P2
2023/06/25 00:02:48;;;;;;;10.35;8.13;;;;;17.80;101482.00;;;;10436126;28;20219;-79
2023/06/25 00:07:49;;;;;;;14.73;8.57;;;;;17.70;101481.00;;;;10411873;28;21792;-79
2023/06/25 00:12:50;;;;;;;14.88;10.07;;;;;17.70;101478.00;;;;10429174;28;20985;-76
2023/06/25 00:17:52;;;;;;;12.35;8.40;;;;;17.60;101470.00;;;;10428877;28;20232;-76
2023/06/25 00:22:54;;;;;;;13.48;8.93;;;;;17.50;101466.00;;;;10428776;28;20751;-76
2023/06/25 00:28:08;;;;;;;14.15;8.63;;;;;17.40;101459.00;;;;10422075;28;20200;-80
2023/06/25 00:33:10;;;;;;;11.77;8.85;;;;;17.40;101459.00;;;;10424450;28;20422;-80
2023/06/25 00:38:13;;;;;;;10.45;7.43;;;;;17.30;101454.00;;;;10440045;28;20213;-80
2023/06/25 00:43:15;;;;;;;8.07;7.20;;;;;17.20;101446.00;;;;10439732;28;20213;-79
2023/06/25 00:48:16;;;;;;;10.88;7.30;;;;;17.20;101450.00;;;;10404448;28;20212;-79
2023/06/25 00:53:19;;;;;;;8.48;6.90;;;;;17.20;101434.00;;;;10434672;28;20236;-81
2023/06/25 00:58:22;;;;;;;10.20;7.63;;;;;17.10;101437.00;;;;10418082;28;20205;-80
2023/06/25 01:03:30;;;;;;;8.68;7.47;;;;;17.10;101427.00;;;;10437537;28;20209;-79
2023/06/25 01:08:32;;;;;;;9.13;7.47;;;;;17.00;101418.00;;;;10400007;28;21715;-76
2023/06/25 01:13:33;;;;;;;10.88;8.07;;;;;17.00;101418.00;;;;10402449;28;21302;-79
2023/06/25 01:18:39;;;;;;;10.55;7.28;;;;;16.90;101409.00;;;;10417484;28;20215;-81
2023/06/25 01:23:46;;;;;;;9.82;7.18;;;;;16.80;101408.00;;;;10413317;28;20223;-79
2023/06/25 01:28:48;;;;;;;10.77;7.45;;;;;16.80;101404.00;;;;10405732;28;21132;-76
2023/06/25 01:33:49;;;;;;;9.70;7.80;;;;;16.70;101397.00;;;;10446958;28;20225;-80
2023/06/25 01:38:51;;;;;;;11.75;8.65;;;;;16.60;101388.00;;;;10449526;28;20204;-78
2023/06/25 01:43:52;;;;;;;12.55;9.13;;;;;16.60;101382.00;;;;10447545;28;20294;-80
2023/06/25 01:48:54;;;;;;;11.73;9.10;;;;;16.50;101376.00;;;;10419369;28;21850;-77
2023/06/25 01:53:55;;;;;;;13.73;9.60;;;;;16.50;101377.00;;;;10441020;28;20855;-82
2023/06/25 01:58:56;;;;;;;13.25;10.68;;;;;16.40;101376.00;;;;10404530;28;20267;-78
2023/06/25 02:03:58;;;;;;;15.73;11.88;;;;;16.30;101364.00;;;;10417528;28;20213;-82
2023/06/25 02:08:59;;;;;;;17.65;11.65;;;;;16.30;101362.00;;;;10400398;28;20213;-78
2023/06/25 02:14:01;;;;;;;14.10;10.07;;;;;16.30;101347.00;;;;10411908;28;20233;-78
2023/06/25 02:19:02;;;;;;;13.32;10.65;;;;;16.20;101355.00;;;;10414936;28;20300;-76
2023/06/25 02:24:04;;;;;;;15.25;10.75;;;;;16.10;101355.00;;;;10411560;28;20238;-81
2023/06/25 02:29:05;;;;;;;18.83;13.70;;;;;16.10;101349.00;;;;10435489;28;20686;-81
2023/06/25 02:34:07;;;;;;;18.92;13.32;;;;;16.00;101345.00;;;;10430094;28;20318;-79
2023/06/25 02:39:08;;;;;;;18.08;11.80;;;;;16.00;101343.00;;;;10404906;28;20309;-79
2023/06/25 02:44:10;;;;;;;16.27;11.13;;;;;16.00;101343.00;;;;10431004;28;20252;-78
2023/06/25 02:49:11;;;;;;;15.18;11.15;;;;;15.90;101339.00;;;;10427985;28;20200;-77
2023/06/25 02:54:13;;;;;;;13.80;10.38;;;;;15.90;101343.00;;;;10426003;28;20229;-76
2023/06/25 02:59:14;;;;;;;14.00;10.98;;;;;15.90;101331.00;;;;10422284;28;21371;-77
2023/06/25 03:04:16;;;;;;;19.20;11.77;;;;;15.80;101332.00;;;;10430576;28;20284;-77
2023/06/25 03:09:20;;;;;;;16.90;11.27;;;;;15.80;101332.00;;;;10436259;28;20781;-79
2023/06/25 03:14:22;;;;;;;18.17;12.40;;;;;15.80;101337.00;;;;10434942;28;20685;-79
2023/06/25 03:19:36;;;;;;;18.83;13.75;;;;;15.80;101330.00;;;;10402893;28;20204;-81
2023/06/25 03:24:37;;;;;;;20.73;14.80;;;;;15.80;101324.00;;;;10432438;28;20332;-79
2023/06/25 03:29:39;;;;;;;25.38;16.38;;;;;15.80;101323.00;;;;10431861;28;20214;-77
2023/06/25 03:34:40;;;;;;;22.05;13.43;;;;;15.80;101320.00;;;;10419332;28;20239;-79
2023/06/25 03:39:42;;;;;;;19.15;13.45;;;;;15.80;101316.00;;;;10409355;28;20301;-77
2023/06/25 03:44:52;;;;;;;18.85;13.07;;;;;15.80;101320.00;;;;10396386;28;20205;-76
2023/06/25 03:49:57;;;;;;;21.15;14.45;;;;;15.80;101312.00;;;;10426826;28;20208;-78
2023/06/25 03:54:58;;;;;;;24.85;13.75;;;;;15.90;101308.00;;;;10433154;28;22204;-79
2023/06/25 04:00:00;;;;;;;24.23;12.57;;;;;16.30;101307.00;;;;10433058;28;21883;-79
2023/06/25 04:05:02;;;;;;;22.48;11.75;;;;;16.40;101308.00;;;;10396693;28;22018;-79
2023/06/25 04:10:04;;;;;;;21.00;12.90;;;;;16.80;101306.00;;;;10409028;28;20262;-81
2023/06/25 04:15:07;;;;;;;19.27;11.38;;;;;16.90;101297.00;;;;10418215;28;20252;-78
2023/06/25 04:20:10;;;;;;;26.80;12.20;;;;;16.80;101304.00;;;;10399140;28;20919;-78
2023/06/25 04:25:11;;;;;;;20.27;11.35;;;;;16.70;101306.00;;;;10423684;28;20286;-77
2023/06/25 04:30:13;;;;;;;21.00;11.38;;;;;16.70;101297.00;;;;10400647;28;20211;-77
2023/06/25 04:35:16;;;;;;;26.08;12.00;;;;;16.70;101305.00;;;;10417423;28;20312;-76
2023/06/25 04:40:19;;;;;;;27.17;12.90;;;;;16.80;101304.00;;;;10400927;28;20328;-77
2023/06/25 04:45:21;;;;;;;26.27;12.73;;;;;16.90;101303.00;;;;10432646;28;20529;-77
2023/06/25 04:50:23;;;;;;;33.35;13.15;;;;;17.00;101303.00;;;;10437202;28;20201;-77
2023/06/25 04:55:24;;;;;;;29.77;14.48;;;;;17.20;101290.00;;;;10398610;28;20212;-78
2023/06/25 05:00:25;;;;;;;13.77;9.90;;;;;17.50;101291.00;;;;10419887;28;20228;-78
2023/06/25 05:05:27;;;;;;;13.57;9.05;;;;;18.20;101289.00;;;;10429411;28;20284;-78
2023/06/25 05:10:28;;;;;;;18.35;9.93;;;;;18.70;101290.00;;;;10417914;28;20324;-79
2023/06/25 05:15:32;;;;;;;13.23;8.00;;;;;19.20;101289.00;;;;10413651;28;20813;-79
2023/06/25 05:20:35;;;;;;;21.95;8.07;;;;;19.60;101288.00;;;;10414730;28;20208;-79
2023/06/25 05:25:37;;;;;;;14.30;6.85;;;;;20.00;101291.00;;;;10397926;28;20204;-79
2023/06/25 05:30:39;;;;;;;18.50;6.95;;;;;20.40;101289.00;;;;10428781;28;20209;-78
2023/06/25 05:35:40;;;;;;;12.45;6.82;;;;;20.80;101294.00;;;;10421168;28;20197;-78
2023/06/25 05:40:42;;;;;;;7.97;5.85;;;;;21.40;101296.00;;;;10419602;28;20205;-76
2023/06/25 05:45:43;;;;;;;9.85;6.13;;;;;22.00;101291.00;;;;10387957;28;20696;-76
2023/06/25 05:50:45;;;;;;;10.52;5.57;;;;;22.50;101293.00;;;;10422697;28;20556;-77
2023/06/25 05:55:46;;;;;;;9.70;5.95;;;;;23.00;101293.00;;;;10403747;28;20212;-78
2023/06/25 06:00:47;;;;;;;8.55;5.80;;;;;23.40;101294.00;;;;10421709;28;20291;-77
2023/06/25 06:05:49;;;;;;;6.68;5.38;;;;;23.80;101291.00;;;;10404129;28;20230;-78
2023/06/25 06:10:51;;;;;;;4.82;3.90;;;;;24.20;101286.00;;;;10401255;28;20212;-77
2023/06/25 06:15:55;;;;;;;8.43;4.40;;;;;24.70;101279.00;;;;10404214;28;21484;-79
2023/06/25 06:20:57;;;;;;;7.35;3.90;;;;;25.30;101289.00;;;;10408864;28;20213;-79
2023/06/25 06:25:58;;;;;;;3.90;3.50;;;;;25.70;101280.00;;;;10399814;28;20209;-79
2023/06/25 06:30:59;;;;;;;3.85;3.42;;;;;26.10;101279.00;;;;10384316;28;20221;-79
2023/06/25 06:36:01;;;;;;;5.45;3.72;;;;;26.50;101276.00;;;;10412969;28;20215;-79
2023/06/25 06:41:02;;;;;;;3.88;3.55;;;;;26.80;101281.00;;;;10432337;28;20268;-79
2023/06/25 06:46:04;;;;;;;6.68;4.03;;;;;27.20;101277.00;;;;10416683;28;20212;-80
2023/06/25 06:51:09;;;;;;;3.47;3.17;;;;;27.70;101269.00;;;;10417791;28;20258;-80
2023/06/25 06:56:10;;;;;;;6.45;3.53;;;;;28.20;101268.00;;;;10416884;28;20221;-80
2023/06/25 07:01:11;;;;;;;5.43;3.30;;;;;28.70;101269.00;;;;10434657;28;20205;-80
2023/06/25 07:06:13;;;;;;;5.43;4.03;;;;;29.10;101265.00;;;;10414557;28;20840;-81
2023/06/25 07:11:21;;;;;;;4.38;3.50;;;;;29.60;101269.00;;;;10428045;28;20214;-79
2023/06/25 07:16:26;;;;;;;5.13;3.13;;;;;30.10;101262.00;;;;10404322;28;20308;-79
2023/06/25 07:21:27;;;;;;;4.65;3.55;;;;;30.50;101268.00;;;;10396834;28;20510;-78
2023/06/25 07:26:29;;;;;;;5.85;3.67;;;;;31.00;101268.00;;;;10401808;28;20295;-81
2023/06/25 07:31:31;;;;;;;5.40;3.38;;;;;31.30;101259.00;;;;10389663;28;20622;-79
2023/06/25 07:36:32;;;;;;;3.65;3.35;;;;;31.60;101256.00;;;;10386565;28;20296;-78
2023/06/25 07:41:34;;;;;;;6.18;3.88;;;;;32.10;101257.00;;;;10418544;28;21819;-78
2023/06/25 07:46:35;;;;;;;5.38;3.65;;;;;32.40;101249.00;;;;10419659;28;20294;-79
2023/06/25 07:51:37;;;;;;;5.47;3.67;;;;;33.00;101247.00;;;;10420292;28;20868;-79
2023/06/25 07:56:41;;;;;;;6.28;3.63;;;;;33.00;101248.00;;;;10411708;28;20268;-78
2023/06/25 08:01:42;;;;;;;8.32;3.55;;;;;33.40;101245.00;;;;10378362;28;20950;-77
2023/06/25 08:06:44;;;;;;;4.97;3.60;;;;;33.70;101243.00;;;;10394921;28;20496;-80
2023/06/25 08:11:47;;;;;;;4.50;3.50;;;;;34.10;101241.00;;;;10403705;28;20920;-79
2023/06/25 08:16:49;;;;;;;3.85;3.35;;;;;34.40;101243.00;;;;10401526;28;20201;-78
2023/06/25 08:21:50;;;;;;;4.03;3.63;;;;;34.70;101230.00;;;;10398479;28;20201;-81
2023/06/25 08:26:52;;;;;;;4.00;3.40;;;;;34.90;101228.00;;;;10397806;28;20205;-79
2023/06/25 08:31:53;;;;;;;4.25;3.30;;;;;35.30;101244.00;;;;10391298;28;20232;-80
2023/06/25 08:36:55;;;;;;;4.25;3.63;;;;;35.40;101225.00;;;;10386198;28;20211;-79
2023/06/25 08:41:57;;;;;;;5.00;3.70;;;;;35.50;101220.00;;;;10402680;28;20841;-80
2023/06/25 08:46:59;;;;;;;4.90;3.58;;;;;35.60;101214.00;;;;10404631;28;20445;-81
2023/06/25 08:52:01;;;;;;;5.35;4.30;;;;;36.00;101217.00;;;;10397628;28;20864;-81
2023/06/25 08:57:03;;;;;;;3.63;3.33;;;;;36.30;101218.00;;;;10418235;28;20201;-80
2023/06/25 09:02:05;;;;;;;4.03;3.72;;;;;36.20;101208.00;;;;10360551;28;20204;-80
2023/06/25 09:07:07;;;;;;;4.18;3.80;;;;;36.70;101202.00;;;;10341606;28;20205;-78
2023/06/25 09:12:12;;;;;;;4.00;3.70;;;;;36.90;101203.00;;;;10338253;28;20646;-79
2023/06/25 09:17:20;;;;;;;4.07;3.67;;;;;37.10;101197.00;;;;10344591;28;20204;-80
2023/06/25 09:22:21;;;;;;;4.32;3.90;;;;;37.00;101200.00;;;;10375480;28;20205;-78
2023/06/25 09:27:23;;;;;;;4.15;3.75;;;;;37.10;101200.00;;;;10353226;28;20296;-78
2023/06/25 09:32:24;;;;;;;4.97;4.05;;;;;37.10;101196.00;;;;10344430;28;21508;-79
2023/06/25 09:37:26;;;;;;;5.65;3.63;;;;;37.10;101192.00;;;;10348086;28;20240;-79
2023/06/25 09:42:27;;;;;;;4.47;3.92;;;;;37.20;101176.00;;;;10317272;28;20209;-78
2023/06/25 09:47:29;;;;;;;4.38;3.97;;;;;37.40;101179.00;;;;10311527;28;20359;-79
2023/06/25 09:52:30;;;;;;;4.18;3.70;;;;;37.60;101180.00;;;;10336524;28;20232;-79
2023/06/25 09:57:32;;;;;;;4.75;4.00;;;;;37.80;101179.00;;;;10375112;28;20197;-79
2023/06/25 10:02:33;;;;;;;4.13;3.40;;;;;37.80;101178.00;;;;10333934;28;20205;-80
2023/06/25 10:07:35;;;;;;;5.80;4.15;;;;;38.20;101175.00;;;;10354429;28;20200;-78
2023/06/25 10:12:37;;;;;;;4.82;4.40;;;;;38.20;101172.00;;;;10370486;28;20721;-78
2023/06/25 10:17:47;;;;;;;3.70;3.40;;;;;38.20;101165.00;;;;10407968;28;20294;-79
2023/06/25 10:22:48;;;;;;;4.43;4.03;;;;;38.20;101159.00;;;;10405624;28;20261;-78
2023/06/25 10:27:49;;;;;;;4.13;3.50;;;;;38.10;101162.00;;;;10390113;28;20216;-81
2023/06/25 10:33:00;;;;;;;5.88;4.13;;;;;38.30;101153.00;;;;10405289;28;20255;-79
2023/06/25 10:38:02;;;;;;;4.10;3.80;;;;;38.50;101152.00;;;;10407095;28;20844;-79
2023/06/25 10:43:03;;;;;;;5.55;4.00;;;;;38.60;101146.00;;;;10403548;28;21556;-79
2023/06/25 10:48:08;;;;;;;4.20;3.80;;;;;38.80;101145.00;;;;10405070;28;20208;-78
2023/06/25 10:53:12;;;;;;;4.78;3.80;;;;;39.20;101131.00;;;;10400675;28;20249;-79
2023/06/25 10:58:15;;;;;;;5.25;3.63;;;;;39.50;101134.00;;;;10404941;28;20970;-79
2023/06/25 11:03:16;;;;;;;4.80;3.97;;;;;39.50;101130.00;;;;10431645;28;20265;-80
2023/06/25 11:08:23;;;;;;;4.03;3.72;;;;;39.40;101124.00;;;;10408116;28;21830;-77
2023/06/25 11:13:24;;;;;;;5.30;4.30;;;;;39.10;101116.00;;;;10415039;28;21175;-79
2023/06/25 11:18:26;;;;;;;4.05;3.70;;;;;39.20;101113.00;;;;10419428;28;20227;-79
2023/06/25 11:23:28;;;;;;;5.22;3.83;;;;;39.20;101111.00;;;;10421133;28;20233;-79
2023/06/25 11:28:29;;;;;;;6.82;4.07;;;;;39.40;101092.00;;;;10409097;28;20762;-80
2023/06/25 11:33:31;;;;;;;7.63;4.07;;;;;39.70;101093.00;;;;10394551;28;22085;-78
2023/06/25 11:38:32;;;;;;;6.18;3.72;;;;;39.90;101086.00;;;;10421122;28;21778;-79
2023/06/25 11:43:34;;;;;;;6.32;4.25;;;;;40.00;101075.00;;;;10419585;28;20203;-80
2023/06/25 11:48:36;;;;;;;4.32;3.88;;;;;39.90;101071.00;;;;10413785;28;20864;-81
2023/06/25 11:53:37;;;;;;;4.38;3.78;;;;;40.30;101071.00;;;;10412448;28;20430;-79
2023/06/25 11:58:38;;;;;;;4.50;3.90;;;;;40.60;101065.00;;;;10407113;28;20591;-80
2023/06/25 12:03:39;;;;;;;4.13;3.72;;;;;40.30;101058.00;;;;10402106;28;20431;-80
2023/06/25 12:08:41;;;;;;;5.40;3.85;;;;;40.20;101053.00;;;;10401358;28;20221;-81
2023/06/25 12:13:43;;;;;;;4.57;3.90;;;;;39.90;101057.00;;;;10384422;28;20918;-80
2023/06/25 12:18:44;;;;;;;4.13;3.70;;;;;40.20;101045.00;;;;10402505;28;20844;-80
2023/06/25 12:23:45;;;;;;;4.68;4.03;;;;;40.00;101047.00;;;;10400459;28;20384;-80
2023/06/25 12:28:48;;;;;;;4.82;4.32;;;;;40.00;101039.00;;;;10397914;28;21654;-81
2023/06/25 12:33:49;;;;;;;3.67;3.38;;;;;40.10;101022.00;;;;10370071;28;20197;-80
2023/06/25 12:38:51;;;;;;;4.10;3.80;;;;;40.10;101021.00;;;;10413641;28;20226;-81
2023/06/25 12:43:56;;;;;;;4.28;3.88;;;;;40.30;101017.00;;;;10404093;28;20257;-78
2023/06/25 12:48:57;;;;;;;4.13;3.83;;;;;40.10;101007.00;;;;10405034;28;20224;-79
2023/06/25 12:53:58;;;;;;;4.82;3.78;;;;;39.90;101007.00;;;;10386697;28;20267;-78
2023/06/25 12:59:00;;;;;;;5.93;3.70;;;;;39.80;101006.00;;;;10404729;28;20425;-77
2023/06/25 13:04:01;;;;;;;6.15;3.40;;;;;39.40;101005.00;;;;10418249;28;20227;-77
2023/06/25 13:09:03;;;;;;;5.15;3.45;;;;;39.30;100996.00;;;;10429783;28;20212;-78
2023/06/25 13:14:04;;;;;;;4.68;4.18;;;;;39.50;101001.00;;;;10407306;28;20554;-77
2023/06/25 13:19:05;;;;;;;4.20;3.80;;;;;39.60;100999.00;;;;10432913;28;20219;-77
2023/06/25 13:24:07;;;;;;;7.13;4.03;;;;;39.50;100995.00;;;;10429251;28;20229;-78
2023/06/25 13:29:08;;;;;;;4.22;3.92;;;;;39.20;100991.00;;;;10426582;28;21921;-77
2023/06/25 13:34:10;;;;;;;3.95;3.65;;;;;39.00;100987.00;;;;10431469;28;21681;-78
2023/06/25 13:39:11;;;;;;;4.22;3.85;;;;;38.70;100978.00;;;;10426704;28;20215;-77
2023/06/25 13:44:15;;;;;;;5.15;3.88;;;;;38.90;100980.00;;;;10407079;28;20219;-77
2023/06/25 13:49:17;;;;;;;5.60;3.97;;;;;38.80;100976.00;;;;10413107;28;21099;-77
2023/06/25 13:54:18;;;;;;;3.92;3.63;;;;;38.90;100970.00;;;;10417333;28;20470;-77
2023/06/25 13:59:20;;;;;;;5.00;3.97;;;;;38.90;100970.00;;;;10412307;28;20909;-78
2023/06/25 14:04:21;;;;;;;3.92;3.63;;;;;38.80;100960.00;;;;10410529;28;20224;-80
2023/06/25 14:09:23;;;;;;;4.40;3.70;;;;;38.80;100947.00;;;;10414581;28;20208;-79
2023/06/25 14:14:24;;;;;;;3.78;3.47;;;;;38.70;100955.00;;;;10432562;28;20307;-81
2023/06/25 14:19:26;;;;;;;4.00;3.20;;;;;38.40;100942.00;;;;10430903;28;21105;-77
2023/06/25 14:24:27;;;;;;;4.03;3.50;;;;;38.10;100947.00;;;;10425076;28;20224;-79
2023/06/25 14:29:29;;;;;;;4.28;3.45;;;;;37.60;100939.00;;;;10431351;28;20208;-81
2023/06/25 14:34:30;;;;;;;5.80;3.90;;;;;37.60;100936.00;;;;10436773;28;20204;-80
2023/06/25 14:39:32;;;;;;;3.17;2.92;;;;;37.60;100923.00;;;;10417414;28;20225;-81
2023/06/25 14:44:33;;;;;;;3.88;3.47;;;;;37.40;100923.00;;;;10438500;28;20750;-81
2023/06/25 14:49:34;;;;;;;3.65;3.13;;;;;37.40;100925.00;;;;10433616;28;21402;-81
2023/06/25 14:54:36;;;;;;;3.72;3.42;;;;;37.30;100908.00;;;;10420274;28;20319;-82
2023/06/25 14:59:38;;;;;;;3.70;3.40;;;;;37.10;100903.00;;;;10432150;28;20230;-80
2023/06/25 15:04:39;;;;;;;5.28;3.65;;;;;36.90;100908.00;;;;10434257;28;20327;-80
2023/06/25 15:09:41;;;;;;;4.05;3.33;;;;;36.70;100905.00;;;;10426942;28;20239;-80
2023/06/25 15:14:42;;;;;;;4.88;4.00;;;;;36.60;100889.00;;;;10427821;28;20937;-80
2023/06/25 15:19:46;;;;;;;3.70;3.40;;;;;36.80;100889.00;;;;10400995;28;20205;-77
2023/06/25 15:24:48;;;;;;;3.67;3.33;;;;;37.10;100886.00;;;;10378575;28;20723;-79
2023/06/25 15:29:49;;;;;;;3.95;3.65;;;;;37.50;100875.00;;;;10409266;28;20265;-79
2023/06/25 15:34:50;;;;;;;5.47;3.60;;;;;37.20;100870.00;;;;10413303;28;20845;-79
2023/06/25 15:39:52;;;;;;;4.20;3.80;;;;;36.90;100868.00;;;;10393429;28;20201;-80
2023/06/25 15:44:55;;;;;;;5.50;3.78;;;;;36.40;100863.00;;;;10412119;28;20231;-80
2023/06/25 15:49:58;;;;;;;3.85;3.55;;;;;35.90;100856.00;;;;10412535;28;20210;-79
2023/06/25 15:54:59;;;;;;;4.55;3.60;;;;;35.30;100858.00;;;;10402698;28;20449;-80
2023/06/25 16:00:01;;;;;;;5.82;3.80;;;;;34.70;100850.00;;;;10409015;28;20209;-77
2023/06/25 16:05:03;;;;;;;3.88;3.55;;;;;34.20;100847.00;;;;10390854;28;20221;-79
2023/06/25 16:10:05;;;;;;;3.95;3.60;;;;;33.80;100846.00;;;;10408812;28;20208;-79
2023/06/25 16:15:07;;;;;;;4.05;3.67;;;;;33.50;100833.00;;;;10403768;28;20288;-79
2023/06/25 16:20:09;;;;;;;4.07;3.67;;;;;33.40;100833.00;;;;10429353;28;20219;-80
2023/06/25 16:25:13;;;;;;;4.38;3.60;;;;;33.20;100829.00;;;;10425808;28;20213;-79
2023/06/25 16:30:15;;;;;;;3.80;3.50;;;;;33.20;100830.00;;;;10411089;28;20220;-80
2023/06/25 16:35:17;;;;;;;4.22;3.83;;;;;33.10;100821.00;;;;10425347;28;20236;-80
2023/06/25 16:40:19;;;;;;;3.65;3.35;;;;;33.00;100818.00;;;;10423968;28;20215;-79
2023/06/25 16:45:20;;;;;;;4.22;3.83;;;;;32.70;100811.00;;;;10406137;28;21975;-81
2023/06/25 16:50:21;;;;;;;5.05;3.95;;;;;32.60;100810.00;;;;10424536;28;20209;-78
2023/06/25 16:55:23;;;;;;;3.72;3.42;;;;;32.40;100804.00;;;;10424846;28;20270;-81
2023/06/25 17:00:25;;;;;;;3.70;3.40;;;;;32.20;100799.00;;;;10394455;28;20570;-77
2023/06/25 17:05:26;;;;;;;3.45;3.17;;;;;32.00;100797.00;;;;10394143;28;20243;-77
2023/06/25 17:10:27;;;;;;;5.75;3.83;;;;;31.90;100794.00;;;;10395910;28;20205;-81
2023/06/25 17:15:29;;;;;;;3.72;3.42;;;;;31.90;100804.00;;;;10401837;28;20797;-80
2023/06/25 17:20:30;;;;;;;3.92;3.60;;;;;31.80;100798.00;;;;10404493;28;20605;-78
2023/06/25 17:25:32;;;;;;;7.35;3.85;;;;;31.60;100797.00;;;;10394432;28;20781;-79
2023/06/25 17:30:33;;;;;;;4.63;3.88;;;;;31.60;100793.00;;;;10381217;28;21484;-81
2023/06/25 17:35:35;;;;;;;4.30;3.58;;;;;31.50;100790.00;;;;10401883;28;20281;-75
2023/06/25 17:40:37;;;;;;;4.63;3.65;;;;;31.40;100792.00;;;;10395257;28;20847;-78
2023/06/25 17:45:38;;;;;;;4.70;3.40;;;;;31.30;100797.00;;;;10393213;28;20253;-77
2023/06/25 17:50:39;;;;;;;7.50;3.78;;;;;31.20;100796.00;;;;10365047;28;20454;-80
2023/06/25 17:55:41;;;;;;;5.53;3.50;;;;;31.10;100793.00;;;;10362851;28;20220;-77
2023/06/25 18:00:42;;;;;;;5.10;3.92;;;;;31.00;100796.00;;;;10352450;28;20834;-78
2023/06/25 18:05:44;;;;;;;4.05;3.22;;;;;30.80;100793.00;;;;10419573;28;20221;-81
2023/06/25 18:10:45;;;;;;;3.80;3.42;;;;;30.70;100797.00;;;;10504573;28;20227;-76
2023/06/25 18:15:46;;;;;;;5.03;3.72;;;;;30.50;100800.00;;;;10395710;28;20278;-80
2023/06/25 18:20:48;;;;;;;4.22;3.80;;;;;30.30;100800.00;;;;10363187;28;20204;-79
2023/06/25 18:25:52;;;;;;;4.28;3.55;;;;;30.20;100806.00;;;;10347303;28;20217;-80
2023/06/25 18:30:57;;;;;;;5.18;3.70;;;;;30.10;100797.00;;;;10362741;28;20697;-80
2023/06/25 18:35:59;;;;;;;4.75;3.80;;;;;29.90;100803.00;;;;10471417;28;20544;-80
2023/06/25 18:41:00;;;;;;;4.40;4.00;;;;;29.70;100788.00;;;;10475094;28;20212;-79
2023/06/25 18:46:02;;;;;;;4.65;3.70;;;;;29.50;100801.00;;;;10505164;28;20235;-82
2023/06/25 18:51:03;;;;;;;7.20;4.10;;;;;29.40;100793.00;;;;10505195;28;20194;-77
2023/06/25 18:56:05;;;;;;;4.38;3.70;;;;;29.20;100790.00;;;;10499380;28;20205;-79
2023/06/25 19:01:10;;;;;;;4.50;4.10;;;;;29.10;100785.00;;;;10486767;28;20216;-80
2023/06/25 19:06:11;;;;;;;5.45;3.90;;;;;29.00;100788.00;;;;10501494;28;20217;-76
2023/06/25 19:11:13;;;;;;;4.10;3.70;;;;;28.80;100777.00;;;;10499307;28;20200;-81
2023/06/25 19:16:15;;;;;;;6.00;4.20;;;;;28.70;100777.00;;;;10485365;28;20228;-81
2023/06/25 19:21:16;;;;;;;4.85;3.83;;;;;28.70;100774.00;;;;10523091;28;20200;-81
2023/06/25 19:26:17;;;;;;;4.93;3.83;;;;;28.60;100765.00;;;;10500613;28;20240;-83
2023/06/25 19:31:19;;;;;;;5.35;4.10;;;;;28.40;100766.00;;;;10492244;28;20213;-84
2023/06/25 19:36:21;;;;;;;5.43;4.10;;;;;28.20;100775.00;;;;10506377;28;20204;-85
2023/06/25 19:41:22;;;;;;;5.50;4.00;;;;;28.00;100773.00;;;;10483546;28;20201;-77
2023/06/25 19:46:24;;;;;;;6.00;4.78;;;;;27.70;100763.00;;;;10496639;28;20205;-76
2023/06/25 19:51:25;;;;;;;4.80;4.40;;;;;27.50;100761.00;;;;10495665;28;20287;-81
2023/06/25 19:56:27;;;;;;;4.50;4.10;;;;;27.20;100766.00;;;;10522708;28;20208;-77
2023/06/25 20:01:28;;;;;;;5.97;4.35;;;;;27.00;100771.00;;;;10541813;28;20189;-78
2023/06/25 20:06:30;;;;;;;5.30;4.53;;;;;26.80;100760.00;;;;10492529;28;20209;-78
2023/06/25 20:11:31;;;;;;;7.68;4.43;;;;;26.70;100768.00;;;;10487996;28;20201;-78
2023/06/25 20:16:33;;;;;;;7.82;4.82;;;;;26.60;100771.00;;;;10472333;28;20201;-77
2023/06/25 20:21:34;;;;;;;5.95;4.75;;;;;26.40;100769.00;;;;10468581;28;20284;-77
2023/06/25 20:26:35;;;;;;;6.63;5.30;;;;;26.30;100767.00;;;;10488352;28;20666;-77
2023/06/25 20:31:38;;;;;;;7.82;4.70;;;;;26.10;100772.00;;;;10466737;28;20209;-77
2023/06/25 20:36:39;;;;;;;5.78;4.93;;;;;26.00;100769.00;;;;10417290;28;20216;-80
2023/06/25 20:41:42;;;;;;;5.90;4.78;;;;;25.90;100772.00;;;;10408138;28;20748;-79
2023/06/25 20:46:44;;;;;;;6.28;5.05;;;;;25.80;100775.00;;;;10401184;28;20209;-79
2023/06/25 20:51:48;;;;;;;7.35;5.05;;;;;25.70;100770.00;;;;10441332;28;20603;-78
2023/06/25 20:56:49;;;;;;;5.80;4.85;;;;;25.50;100779.00;;;;10420894;28;20215;-77
2023/06/25 21:01:50;;;;;;;5.50;4.40;;;;;25.40;100772.00;;;;10470374;28;20229;-78
2023/06/25 21:06:52;;;;;;;5.72;4.72;;;;;25.20;100777.00;;;;10469136;28;20216;-76
2023/06/25 21:11:53;;;;;;;5.15;4.53;;;;;25.00;100772.00;;;;10463644;28;20252;-80
2023/06/25 21:16:54;;;;;;;6.30;4.80;;;;;24.90;100772.00;;;;10385688;28;20984;-77
2023/06/25 21:21:56;;;;;;;5.03;4.53;;;;;24.80;100771.00;;;;10382752;28;20213;-79
2023/06/25 21:26:57;;;;;;;7.93;4.55;;;;;24.70;100768.00;;;;10405073;28;20200;-81
2023/06/25 21:31:58;;;;;;;6.53;4.70;;;;;24.60;100771.00;;;;10384076;28;20818;-80
2023/06/25 21:37:00;;;;;;;6.18;4.78;;;;;24.60;100768.00;;;;10381972;28;21362;-75
2023/06/25 21:42:01;;;;;;;5.15;4.38;;;;;24.50;100777.00;;;;10400507;28;20826;-78
2023/06/25 21:47:03;;;;;;;4.70;4.15;;;;;24.40;100772.00;;;;10407509;28;20232;-81
2023/06/25 21:52:09;;;;;;;6.30;4.80;;;;;24.20;100785.00;;;;10412850;28;20511;-81
2023/06/25 21:57:10;;;;;;;8.13;4.68;;;;;24.10;100785.00;;;;10407696;28;20288;-79
2023/06/25 22:02:12;;;;;;;5.30;4.80;;;;;23.90;100778.00;;;;10404541;28;20643;-80
2023/06/25 22:07:17;;;;;;;5.82;5.25;;;;;23.90;100784.00;;;;10385579;28;20247;-78
2023/06/25 22:12:19;;;;;;;7.30;4.85;;;;;23.90;100795.00;;;;10387492;28;20230;-78
2023/06/25 22:17:23;;;;;;;5.70;4.57;;;;;23.80;100803.00;;;;10407285;28;20209;-80
2023/06/25 22:22:25;;;;;;;5.55;5.05;;;;;23.80;100812.00;;;;10415688;28;21919;-81
2023/06/25 22:27:28;;;;;;;8.20;5.00;;;;;23.70;100817.00;;;;10404053;28;20302;-78
2023/06/25 22:32:40;;;;;;;5.63;5.03;;;;;23.70;100809.00;;;;10424888;28;20205;-80
2023/06/25 22:37:42;;;;;;;4.90;4.38;;;;;23.80;100811.00;;;;10418391;28;20209;-82
2023/06/25 22:42:43;;;;;;;7.53;5.13;;;;;23.90;100828.00;;;;10423558;28;20220;-77
2023/06/25 22:47:44;;;;;;;5.78;4.78;;;;;24.20;100834.00;;;;10419356;28;20347;-81
2023/06/25 22:52:46;;;;;;;5.75;5.05;;;;;24.40;100835.00;;;;10415350;28;20238;-81
2023/06/25 22:57:47;;;;;;;7.90;4.78;;;;;24.50;100853.00;;;;10401018;28;20515;-78
2023/06/25 23:02:49;;;;;;;6.50;4.55;;;;;24.30;100867.00;;;;10394617;28;20299;-80
2023/06/25 23:07:50;;;;;;;11.07;4.88;;;;;24.20;100864.00;;;;10412021;28;20250;-79
2023/06/25 23:12:52;;;;;;;7.82;4.28;;;;;24.00;100869.00;;;;10419691;28;20898;-77
2023/06/25 23:17:53;;;;;;;4.90;4.40;;;;;23.80;100871.00;;;;10423650;28;20209;-79
2023/06/25 23:22:55;;;;;;;8.55;4.32;;;;;23.60;100872.00;;;;10413811;28;20224;-80
2023/06/25 23:27:57;;;;;;;4.93;4.43;;;;;23.50;100873.00;;;;10412839;28;20288;-77
2023/06/25 23:33:02;;;;;;;5.28;4.20;;;;;23.30;100878.00;;;;10392810;28;20209;-81
2023/06/25 23:38:03;;;;;;;6.05;4.47;;;;;23.20;100883.00;;;;10417161;28;20299;-80
2023/06/25 23:43:05;;;;;;;6.78;4.60;;;;;23.00;100877.00;;;;10412884;28;21630;-78
2023/06/25 23:48:06;;;;;;;8.07;4.38;;;;;22.90;100887.00;;;;10413077;28;20813;-81
2023/06/25 23:53:08;;;;;;;6.00;5.13;;;;;22.80;100886.00;;;;10378794;28;20213;-80
2023/06/25 23:58:09;;;;;;;5.43;4.55;;;;;22.70;100886.00;;;;10390443;28;20213;-75
